Tucumcari Municipal Airport
KTCC : now visible

Airfield :











YOU CAN JOIN US ON...

 
LOGIN :

Register | Disclaimer

   EN    FR    IT 

 









Legend :    VFR   Marginal VFR   IFR   Intensive IFR   Very Intensive IFR
Visi :
Ceiling :
>= 8 km
>= 3000ft
5 to 8 km
1000 to 3000 ft
1500m to 5 km
500 to 1000 ft
800 to 1500m
200 to 500 ft
< 800m
< 200 ft
Symbols :   Thunderstorms  Fog  Heavy snow  Heavy precipitations  Wind > 20 kt






- Airport Elevation : 4065 ft


KTCC - Tucumcari Municipal

CURRENT METAR :
  • 222253Z AUTO 21016KT 10SM CLR 34/09 A2988 RMK AO2 PK WND 21026/2219 SLP050 T03440094

EXPIRED METARs :
  • 222153Z AUTO 23015G25KT 10SM CLR 36/09 A2992 RMK AO2 PK WND 21029/2100 SLP061 T03560094
  • 222053Z AUTO 23017G26KT 10SM CLR 34/11 A2993 RMK AO2 PK WND 22029/1957 SLP068 T03390106 58030

TAF KTCC
Valid from the 22 at 18:00 until the 23 at 18:00 UTC


221735Z 2218/2318 21018G28KT P6SM FEW100
TEMPO 2223/2302 VRB20G35KT -TSRA BKN090CB OVC250
FM230200 20013KT P6SM FEW100 SCT250
FM231500 23012KT P6SM SCT250
KZAB FIR / North America



MET'MAP, your aeronautical weather chart ! - Copyright ORBIFLY December 2007 - Disclaimer

ORBIFLY MET'MAP TEAM :

Programming & Development : Alexandra Zaïnal
Concept & original design : Baudouin d'Aumeries
Assistance for programming : Marc-Olivier Méhu
Technical & hardware support : Manuel Goepfert

Contact : metmap@orbifly.com




SOURCES & CREDITS :

   NOAA       Earth
Advisory